Time;durP1;ratioP1;P1;durP2;ratioP2;P2;SDS_P1;SDS_P2;PMS_P1;PMS_P2;Temp;Humidity;BMP_temperature;BMP_pressure;BME280_temperature;BME280_humidity;BME280_pressure;Samples;Min_cycle;Max_cycle;Signal;HPM_P1;HPM_P2
2022/10/08 00:00:24;;;;;;;9.80;2.70;;;10.50;99.90;;;9.80;100.00;101892.63;5074062;23;20250;-77
2022/10/08 00:02:28;;;;;;;5.82;2.30;;;10.50;99.90;;;9.79;100.00;101903.28;5099434;23;20006;-77
2022/10/08 00:04:29;;;;;;;5.57;1.80;;;10.50;99.90;;;9.72;100.00;101896.81;5099272;23;20002;-77
2022/10/08 00:06:31;;;;;;;11.35;2.38;;;10.40;99.90;;;9.66;100.00;101892.88;5073395;23;20002;-77
2022/10/08 00:08:37;;;;;;;9.25;1.90;;;10.40;99.90;;;9.64;100.00;101894.81;5073548;23;20010;-77
2022/10/08 00:10:38;;;;;;;8.93;2.40;;;10.40;99.90;;;9.66;100.00;101897.31;5049181;23;20010;-77
2022/10/08 00:12:39;;;;;;;10.82;2.17;;;10.40;99.90;;;9.61;100.00;101894.22;5071586;23;20013;-77
2022/10/08 00:14:39;;;;;;;6.35;2.10;;;10.40;99.90;;;9.63;100.00;101905.47;5097761;23;20013;-77
2022/10/08 00:16:41;;;;;;;10.30;2.45;;;10.30;99.90;;;9.59;100.00;101899.59;5099283;23;20005;-77
2022/10/08 00:18:44;;;;;;;8.82;2.53;;;10.30;99.90;;;9.50;100.00;101891.59;5099071;23;20465;-77
2022/10/08 00:20:46;;;;;;;10.88;2.67;;;10.30;99.90;;;9.58;100.00;101908.47;5073347;23;20010;-77
2022/10/08 00:22:48;;;;;;;9.50;2.60;;;10.30;99.90;;;9.56;100.00;101905.09;5073371;23;20335;-77
2022/10/08 00:24:52;;;;;;;9.63;2.53;;;10.30;99.90;;;9.54;100.00;101901.75;5099070;23;20001;-77
2022/10/08 00:26:53;;;;;;;13.23;2.50;;;10.20;99.90;;;9.54;100.00;101907.03;5073584;23;20001;-77
2022/10/08 00:28:57;;;;;;;9.88;2.55;;;10.20;99.90;;;9.54;100.00;101909.66;5072968;23;20012;-77
2022/10/08 00:31:06;;;;;;;7.95;2.97;;;10.30;99.90;;;9.52;100.00;101906.31;5099138;23;20012;-77
2022/10/08 00:33:09;;;;;;;10.60;2.25;;;10.20;99.90;;;9.50;100.00;101902.94;5098884;23;20063;-77
2022/10/08 00:35:09;;;;;;;6.32;2.40;;;10.20;99.90;;;9.46;100.00;101901.53;5048847;23;20153;-77
2022/10/08 00:37:10;;;;;;;9.30;3.45;;;10.20;99.90;;;9.46;100.00;101906.81;5097209;23;20017;-77
2022/10/08 00:39:18;;;;;;;6.57;3.10;;;10.20;99.90;;;9.43;100.00;101901.78;5073010;23;20006;-77
2022/10/08 00:41:23;;;;;;;6.28;2.35;;;10.20;99.90;;;9.38;100.00;101894.22;5073267;23;20008;-77
2022/10/08 00:43:42;;;;;;;8.02;3.22;;;10.20;99.90;;;9.44;100.00;101906.06;5072998;23;20002;-77
2022/10/08 00:45:46;;;;;;;8.68;2.67;;;10.20;99.90;;;9.44;100.00;101898.16;5073946;23;20076;-77
2022/10/08 00:47:48;;;;;;;11.88;2.83;;;10.20;99.90;;;9.47;100.00;101899.75;5073527;23;20017;-77
2022/10/08 00:49:53;;;;;;;9.63;2.22;;;10.20;99.90;;;9.55;100.00;101906.06;5073094;23;20013;-77
2022/10/08 00:51:55;;;;;;;8.30;3.15;;;10.30;99.90;;;9.61;100.00;101908.22;5048622;23;20010;-77
2022/10/08 00:53:57;;;;;;;7.20;2.20;;;10.30;99.90;;;9.66;100.00;101906.06;5073273;23;20006;-77
2022/10/08 00:55:58;;;;;;;5.70;2.58;;;10.40;99.90;;;9.71;100.00;101909.16;5073112;23;20010;-77
2022/10/08 00:58:06;;;;;;;5.18;1.73;;;10.50;99.90;;;9.75;100.00;101909.75;5098551;23;20013;-77
2022/10/08 01:00:17;;;;;;;7.85;2.10;;;10.50;99.90;;;9.75;100.00;101905.31;5073043;23;20041;-77
2022/10/08 01:02:18;;;;;;;7.70;1.73;;;10.50;99.90;;;9.72;100.00;101908.22;5073935;23;20002;-77
2022/10/08 01:04:19;;;;;;;6.32;2.35;;;10.50;99.90;;;9.78;100.00;101912.16;5072940;23;20366;-77
2022/10/08 01:06:26;;;;;;;7.55;2.08;;;10.50;99.90;;;9.81;100.00;101911.91;5097358;23;20001;-77
2022/10/08 01:09:14;;;;;;;5.82;1.95;;;10.60;99.90;;;9.84;100.00;101912.50;5098918;23;20001;-77
2022/10/08 01:11:26;;;;;;;6.15;1.90;;;10.60;99.90;;;9.90;100.00;101919.91;5072529;23;20014;-77
2022/10/08 01:13:59;;;;;;;7.88;2.72;;;10.60;99.90;;;9.89;100.00;101905.06;5098467;23;20009;-77
2022/10/08 01:16:20;;;;;;;8.02;2.72;;;10.70;99.90;;;9.92;100.00;101912.72;5049953;23;20014;-77
2022/10/08 01:18:55;;;;;;;4.00;1.77;;;10.70;99.90;;;9.98;100.00;101914.84;5096932;23;20077;-77
2022/10/08 01:21:14;;;;;;;3.78;1.27;;;10.70;99.90;;;9.92;100.00;101896.91;5062327;23;20017;-77
2022/10/08 01:23:45;;;;;;;6.15;2.60;;;10.70;99.90;;;9.95;100.00;101909.84;5048697;23;20063;-77
2022/10/08 01:26:08;;;;;;;6.72;2.20;;;10.70;99.90;;;9.92;100.00;101910.09;5098632;23;20389;-77
2022/10/08 01:28:45;;;;;;;7.35;1.52;;;10.70;99.90;;;9.93;100.00;101914.41;5075104;23;20005;-77
2022/10/08 01:31:25;;;;;;;3.90;1.75;;;10.70;99.90;;;9.92;100.00;101910.09;5076518;23;20002;-77
2022/10/08 01:33:46;;;;;;;5.32;1.42;;;10.70;99.90;;;9.95;100.00;101899.28;5047260;23;20013;-77
2022/10/08 01:35:56;;;;;;;3.25;1.50;;;10.80;99.90;;;10.00;100.00;101906.84;5075874;23;20105;-77
2022/10/08 01:38:03;;;;;;;4.88;1.48;;;10.80;99.90;;;9.98;100.00;101898.19;5073121;23;20013;-77
2022/10/08 01:40:19;;;;;;;6.57;1.50;;;10.80;99.90;;;10.02;100.00;101908.38;5073055;23;20006;-77
2022/10/08 01:42:23;;;;;;;5.40;2.25;;;10.80;99.90;;;10.03;100.00;101891.59;5050237;23;20009;-77
2022/10/08 01:44:39;;;;;;;5.20;1.90;;;10.80;99.90;;;10.11;100.00;101900.69;5072972;23;20077;-77
2022/10/08 01:46:45;;;;;;;3.30;1.27;;;10.80;99.90;;;10.09;100.00;101898.19;5098506;23;20006;-77
2022/10/08 01:48:50;;;;;;;4.65;1.13;;;10.90;99.90;;;10.13;100.00;101899.63;5048336;23;20006;-77
2022/10/08 01:51:03;;;;;;;3.42;1.13;;;10.90;99.90;;;10.18;100.00;101899.28;5072913;23;20009;-77
2022/10/08 01:53:11;;;;;;;3.00;1.17;;;10.90;99.90;;;10.18;100.00;101892.19;5098689;23;20010;-77
2022/10/08 01:55:35;;;;;;;3.20;1.05;;;11.00;99.90;;;10.17;100.00;101882.59;5073063;23;20016;-77
2022/10/08 01:57:38;;;;;;;3.53;1.52;;;11.00;99.90;;;10.18;100.00;101894.00;5073116;23;20010;-77
2022/10/08 01:59:55;;;;;;;5.47;1.55;;;11.00;99.90;;;10.12;100.00;101890.03;5072822;23;20009;-77
2022/10/08 02:02:16;;;;;;;3.45;1.30;;;10.90;99.90;;;10.10;100.00;101896.38;5049353;23;20013;-77
2022/10/08 02:04:32;;;;;;;2.65;1.23;;;10.90;99.90;;;10.04;100.00;101895.06;5098306;23;20017;-77
2022/10/08 02:06:37;;;;;;;2.83;1.15;;;10.80;99.90;;;9.96;100.00;101898.34;5098419;23;20060;-77
2022/10/08 02:08:38;;;;;;;8.07;2.15;;;10.70;99.90;;;9.92;100.00;101901.34;5098478;23;20084;-77
2022/10/08 02:10:40;;;;;;;4.07;1.58;;;10.70;99.90;;;9.88;100.00;101898.13;5098342;23;20033;-77
2022/10/08 02:12:42;;;;;;;6.82;1.60;;;10.70;99.90;;;9.88;100.00;101894.66;5047862;23;20434;-77
2022/10/08 02:14:48;;;;;;;4.80;2.00;;;10.70;99.90;;;9.88;100.00;101898.13;5072380;23;20037;-77
2022/10/08 02:17:04;;;;;;;5.22;1.50;;;10.70;99.90;;;9.93;100.00;101895.94;5072907;23;20006;-77
2022/10/08 02:19:19;;;;;;;6.05;1.88;;;10.70;99.90;;;9.96;100.00;101887.78;5073926;23;20010;-77
2022/10/08 02:21:27;;;;;;;7.97;1.77;;;10.70;99.90;;;9.99;100.00;101890.19;5074307;23;20414;-77
2022/10/08 02:23:38;;;;;;;4.43;1.50;;;10.80;99.90;;;9.98;100.00;101893.78;5072447;23;20002;-77
2022/10/08 02:25:54;;;;;;;4.30;1.65;;;10.80;99.90;;;10.01;100.00;101893.53;5073537;23;20006;-77
2022/10/08 02:28:30;;;;;;;7.80;1.98;;;10.80;99.90;;;10.03;100.00;101899.50;5098302;23;20005;-77
2022/10/08 02:30:50;;;;;;;6.03;1.40;;;10.80;99.90;;;10.04;100.00;101895.06;5098415;23;20005;-77
2022/10/08 02:33:03;;;;;;;8.10;1.20;;;10.90;99.90;;;10.12;100.00;101900.59;5074668;23;20010;-77
2022/10/08 02:35:16;;;;;;;3.42;1.50;;;10.90;99.90;;;10.14;100.00;101897.84;5072102;23;20089;-77
2022/10/08 02:37:47;;;;;;;2.78;1.38;;;10.90;99.90;;;10.18;100.00;101899.28;5073137;23;20388;-77
2022/10/08 02:39:59;;;;;;;5.13;1.15;;;11.00;99.90;;;10.22;100.00;101888.34;5074804;23;20037;-77
2022/10/08 02:42:09;;;;;;;2.75;1.23;;;11.10;99.90;;;10.33;100.00;101892.75;5048486;23;20098;-77
2022/10/08 02:44:25;;;;;;;2.05;1.05;;;11.10;99.90;;;10.40;100.00;101891.25;5072970;23;20130;-77
2022/10/08 02:46:31;;;;;;;10.27;2.63;;;11.20;99.90;;;10.47;100.00;101898.53;5048688;23;20011;-77
2022/10/08 02:48:35;;;;;;;6.90;1.73;;;11.30;99.90;;;10.58;100.00;101897.63;5073078;23;20002;-77
2022/10/08 02:50:40;;;;;;;4.00;1.98;;;11.30;99.90;;;10.65;100.00;101901.47;5098352;23;20312;-77
2022/10/08 02:52:44;;;;;;;4.78;1.50;;;11.40;99.90;;;10.72;100.00;101899.97;5072325;23;20074;-77
2022/10/08 02:54:49;;;;;;;3.80;1.40;;;11.50;99.90;;;10.73;100.00;101892.88;5098229;23;20009;-77
2022/10/08 02:57:25;;;;;;;6.63;1.88;;;11.50;99.90;;;10.77;100.00;101895.16;5072711;23;20045;-77
2022/10/08 02:59:26;;;;;;;2.88;1.02;;;11.60;99.90;;;10.82;100.00;101894.75;5072991;23;20010;-77
2022/10/08 03:01:58;;;;;;;2.15;1.38;;;11.60;99.90;;;10.81;100.00;101893.91;5047776;23;20407;-78
2022/10/08 03:04:19;;;;;;;3.20;1.05;;;11.60;99.90;;;10.77;100.00;101889.88;5098242;23;20036;-77
2022/10/08 03:06:20;;;;;;;6.50;1.35;;;11.60;99.90;;;10.77;100.00;101903.06;5074712;23;20410;-77
2022/10/08 03:08:21;;;;;;;3.20;1.10;;;11.60;99.90;;;10.73;100.00;101896.38;5048009;23;20085;-77
2022/10/08 03:10:24;;;;;;;4.07;1.35;;;11.60;99.90;;;10.69;100.00;101889.69;5098130;23;20005;-77
2022/10/08 03:12:25;;;;;;;3.27;1.20;;;11.50;99.90;;;10.68;100.00;101888.00;5097740;23;20053;-77
2022/10/08 03:14:27;;;;;;;4.60;1.50;;;11.50;99.90;;;10.72;100.00;101894.69;5072364;23;20009;-77
2022/10/08 03:16:42;;;;;;;2.47;1.15;;;11.60;99.90;;;10.75;100.00;101893.59;5049295;23;20037;-77
2022/10/08 03:18:43;;;;;;;5.07;1.20;;;11.60;99.90;;;10.81;100.00;101893.91;5074473;23;20014;-77
2022/10/08 03:20:50;;;;;;;2.17;1.17;;;11.60;99.90;;;10.86;100.00;101904.94;5073310;23;20016;-77
2022/10/08 03:22:54;;;;;;;3.05;1.40;;;11.60;99.90;;;10.87;100.00;101898.66;5074098;23;20002;-77
2022/10/08 03:24:55;;;;;;;5.32;1.00;;;11.70;99.90;;;10.94;100.00;101905.13;5074055;23;20006;-77
2022/10/08 03:26:56;;;;;;;6.88;2.15;;;11.70;99.90;;;10.96;100.00;101903.16;5099560;23;20427;-77
2022/10/08 03:28:57;;;;;;;6.53;1.63;;;11.80;99.90;;;10.99;100.00;101907.38;5099241;23;20005;-77
2022/10/08 03:31:03;;;;;;;3.97;1.27;;;11.80;99.90;;;11.05;100.00;101914.78;5099563;23;20382;-77
2022/10/08 03:33:04;;;;;;;11.02;2.20;;;11.90;99.90;;;11.11;100.00;101909.78;5073403;23;20005;-77
2022/10/08 03:35:05;;;;;;;9.75;1.67;;;11.90;99.90;;;11.09;100.00;101913.53;5073247;23;20014;-77
2022/10/08 03:37:06;;;;;;;4.82;1.77;;;11.90;99.90;;;11.17;100.00;101916.34;5099485;23;20076;-77
2022/10/08 03:39:12;;;;;;;9.73;2.58;;;12.00;99.90;;;11.40;100.00;101917.88;5073564;23;20013;-78
2022/10/08 03:41:13;;;;;;;7.80;2.78;;;12.10;99.90;;;11.37;100.00;101920.78;5099611;23;20028;-77
2022/10/08 03:43:14;;;;;;;5.40;1.98;;;12.10;99.90;;;11.36;100.00;101928.81;5048897;23;20407;-77
2022/10/08 03:45:15;;;;;;;7.80;1.85;;;12.20;99.90;;;11.41;100.00;101940.66;5049134;23;20002;-77
2022/10/08 03:47:16;;;;;;;12.68;2.30;;;12.20;99.90;;;11.43;100.00;101944.03;5099371;23;20430;-77
2022/10/08 03:49:16;;;;;;;7.78;1.85;;;12.20;99.90;;;11.43;100.00;101948.47;5073385;23;20348;-78
2022/10/08 03:51:19;;;;;;;6.53;2.17;;;12.30;99.90;;;11.41;100.00;101939.84;5099284;23;20001;-78
2022/10/08 03:53:21;;;;;;;5.05;2.20;;;12.20;99.90;;;11.45;100.00;101943.88;5073525;23;20477;-78
2022/10/08 03:55:22;;;;;;;9.27;2.30;;;12.20;99.90;;;11.54;100.00;101943.94;5073844;23;20457;-78
2022/10/08 03:57:23;;;;;;;7.78;2.17;;;12.30;99.90;;;11.46;100.00;101932.34;5099033;23;20008;-78
2022/10/08 03:59:24;;;;;;;10.10;2.40;;;12.30;99.90;;;11.53;100.00;101950.16;5099237;23;20452;-78
2022/10/08 04:01:27;;;;;;;7.82;2.10;;;12.30;99.90;;;11.55;100.00;101947.41;5073295;23;20354;-78
2022/10/08 04:03:29;;;;;;;6.47;1.97;;;12.30;99.90;;;11.57;100.00;101951.59;5049038;23;20034;-78
2022/10/08 04:05:30;;;;;;;8.90;2.22;;;12.40;99.90;;;11.56;100.00;101944.63;5073288;23;20085;-78
2022/10/08 04:07:31;;;;;;;8.18;2.53;;;12.40;99.90;;;11.57;100.00;101956.03;5097966;23;20012;-78
2022/10/08 04:09:32;;;;;;;7.95;2.15;;;12.30;99.90;;;11.56;100.00;101944.63;5073273;23;20474;-77
2022/10/08 04:11:33;;;;;;;9.00;2.28;;;12.40;99.90;;;11.51;100.00;101954.75;5099503;23;20005;-78
2022/10/08 04:13:36;;;;;;;10.90;2.50;;;12.40;99.90;;;11.54;100.00;101949.22;5073058;23;20013;-78
2022/10/08 04:15:37;;;;;;;8.30;2.17;;;12.40;99.90;;;11.58;100.00;101952.44;5099103;23;20009;-77
2022/10/08 04:17:40;;;;;;;10.95;3.05;;;12.40;99.90;;;11.55;100.00;101957.97;5073159;23;20014;-77
2022/10/08 04:19:41;;;;;;;9.27;2.80;;;12.40;99.90;;;11.56;100.00;101964.91;5099096;23;20006;-77
2022/10/08 04:21:42;;;;;;;8.23;2.38;;;12.40;99.90;;;11.55;100.00;101964.09;5099254;23;20001;-77
2022/10/08 04:23:44;;;;;;;9.68;2.10;;;12.40;99.90;;;11.58;100.00;101963.00;5073201;23;20005;-77
2022/10/08 04:25:50;;;;;;;10.60;2.15;;;12.40;99.90;;;11.58;100.00;101973.56;5098809;23;20021;-77
2022/10/08 04:27:50;;;;;;;7.03;1.95;;;12.40;99.90;;;11.57;100.00;101966.59;5072549;23;20355;-77
2022/10/08 04:29:51;;;;;;;12.85;2.80;;;12.40;99.90;;;11.61;100.00;101978.59;5073223;23;20006;-77
2022/10/08 04:31:52;;;;;;;10.98;2.47;;;12.40;99.90;;;11.64;100.00;101983.63;5073156;23;20533;-77
2022/10/08 04:33:53;;;;;;;11.38;2.67;;;12.40;99.90;;;11.66;100.00;101976.38;5099016;23;20009;-77
2022/10/08 04:35:55;;;;;;;9.35;2.28;;;12.50;99.90;;;11.67;100.00;101983.34;5073070;23;20018;-77
2022/10/08 04:37:56;;;;;;;7.97;2.58;;;12.50;99.90;;;11.66;100.00;101976.38;5097150;23;20041;-77
2022/10/08 04:39:56;;;;;;;9.98;3.10;;;12.50;99.90;;;11.65;100.00;101972.91;5072905;23;20025;-77
2022/10/08 04:41:57;;;;;;;8.32;2.22;;;12.50;99.90;;;11.64;100.00;101973.03;5073154;23;20410;-77
2022/10/08 04:44:02;;;;;;;8.18;2.80;;;12.50;99.90;;;11.59;100.00;101975.22;5072372;23;20009;-77
2022/10/08 04:46:04;;;;;;;8.38;1.90;;;12.50;99.90;;;11.64;100.00;101973.88;5096924;23;20002;-77
2022/10/08 04:48:05;;;;;;;9.20;2.88;;;12.50;99.90;;;11.65;100.00;101979.97;5073143;23;20006;-77
2022/10/08 04:50:06;;;;;;;7.20;2.35;;;12.50;99.90;;;11.66;100.00;101971.09;5074256;23;20015;-77
2022/10/08 04:52:08;;;;;;;7.10;2.40;;;12.50;99.90;;;11.64;100.00;101976.53;5074109;23;20010;-77
2022/10/08 04:54:09;;;;;;;6.93;1.95;;;12.50;99.90;;;11.64;100.00;101971.25;5074347;23;20052;-77
2022/10/08 04:56:18;;;;;;;6.35;1.92;;;12.40;99.90;;;11.67;100.00;101970.13;5072862;23;20006;-77
2022/10/08 04:58:20;;;;;;;8.13;1.77;;;12.50;99.90;;;11.68;100.00;101974.44;5072717;23;20010;-77
2022/10/08 05:00:21;;;;;;;6.05;1.98;;;12.50;99.90;;;11.62;100.00;101964.38;5072844;23;20422;-77
2022/10/08 05:02:21;;;;;;;10.90;2.17;;;12.50;99.90;;;11.61;100.00;101957.44;5074423;23;20002;-77
2022/10/08 05:04:23;;;;;;;9.45;2.10;;;12.50;99.90;;;11.66;100.00;101973.75;5073244;23;20005;-77
2022/10/08 05:06:28;;;;;;;6.70;1.80;;;12.50;99.90;;;11.70;100.00;101975.19;5073177;23;20006;-77
2022/10/08 05:08:29;;;;;;;5.63;1.77;;;12.50;99.90;;;11.71;100.00;101974.19;5072854;23;20002;-77
2022/10/08 05:10:31;;;;;;;6.18;2.20;;;12.50;99.90;;;11.69;100.00;101976.13;5074471;23;20013;-77
2022/10/08 05:12:32;;;;;;;6.38;1.85;;;12.50;99.90;;;11.71;100.00;101979.47;5072691;23;20010;-77
2022/10/08 05:14:32;;;;;;;5.63;2.10;;;12.50;99.90;;;11.72;100.00;101975.88;5048496;23;20006;-77
2022/10/08 05:16:33;;;;;;;8.57;2.20;;;12.50;99.90;;;11.73;100.00;101979.38;5072589;23;20443;-77
2022/10/08 05:18:35;;;;;;;5.00;1.80;;;12.50;99.90;;;11.68;100.00;101974.44;5073919;23;20013;-77
2022/10/08 05:20:36;;;;;;;4.93;1.50;;;12.50;99.90;;;11.71;100.00;101979.47;5072566;23;20010;-77
2022/10/08 05:22:37;;;;;;;4.32;1.70;;;12.50;99.90;;;11.71;100.00;101982.13;5072493;23;20005;-77
2022/10/08 05:24:38;;;;;;;9.93;2.45;;;12.50;99.90;;;11.71;100.00;101983.97;5072745;23;20006;-77
2022/10/08 05:26:39;;;;;;;8.90;2.08;;;12.50;99.90;;;11.70;100.00;101987.56;5072791;23;20002;-77
2022/10/08 05:28:41;;;;;;;7.28;2.08;;;12.50;99.90;;;11.72;100.00;101991.75;5072489;23;20002;-77
2022/10/08 05:30:42;;;;;;;8.80;2.15;;;12.50;99.90;;;11.66;100.00;101981.66;5073963;23;20009;-77
2022/10/08 05:32:43;;;;;;;14.30;3.50;;;12.50;99.90;;;11.72;100.00;101997.03;5072780;23;20324;-77
2022/10/08 05:34:43;;;;;;;8.88;2.65;;;12.50;99.90;;;11.71;100.00;101990.06;5074135;23;20006;-77
2022/10/08 05:36:44;;;;;;;12.52;2.63;;;12.50;99.90;;;11.70;100.00;101987.56;5072428;23;20026;-77
2022/10/08 05:38:46;;;;;;;7.07;2.25;;;12.50;99.90;;;11.69;100.00;101986.69;5074003;23;20006;-77
2022/10/08 05:40:46;;;;;;;6.45;1.52;;;12.50;99.90;;;11.65;100.00;101982.63;5074233;23;20010;-77
2022/10/08 05:42:47;;;;;;;6.32;1.60;;;12.50;99.90;;;11.57;100.00;101979.81;5048056;23;20082;-77
2022/10/08 05:44:48;;;;;;;8.18;1.65;;;12.50;99.90;;;11.57;100.00;101985.94;5048126;23;20006;-77
2022/10/08 05:46:49;;;;;;;5.88;1.83;;;12.40;99.90;;;11.52;100.00;101989.97;5073620;23;20093;-77
2022/10/08 05:48:55;;;;;;;9.30;1.92;;;12.30;99.90;;;11.47;100.00;101981.56;5072603;23;20009;-77
2022/10/08 05:51:02;;;;;;;7.68;1.95;;;12.30;99.90;;;11.43;100.00;101988.09;5072672;23;20013;-77
2022/10/08 05:53:03;;;;;;;8.52;2.65;;;12.30;99.90;;;11.43;100.00;101990.75;5072826;23;20010;-77
2022/10/08 05:55:05;;;;;;;6.10;1.85;;;12.20;99.90;;;11.41;100.00;101997.97;5074083;23;20017;-77
2022/10/08 05:57:05;;;;;;;5.55;1.88;;;12.20;99.90;;;11.44;100.00;101998.53;5072565;23;20591;-77
2022/10/08 05:59:11;;;;;;;5.68;1.60;;;12.30;99.90;;;11.40;100.00;101988.38;5073699;23;20002;-77
2022/10/08 06:01:27;;;;;;;7.00;1.92;;;12.20;99.90;;;11.46;100.00;101993.13;5072670;23;20030;-77
2022/10/08 06:03:29;;;;;;;4.45;2.15;;;12.30;99.90;;;11.46;100.00;101991.31;5074114;23;20454;-77
2022/10/08 06:05:29;;;;;;;3.60;1.10;;;12.30;99.90;;;11.49;100.00;102006.06;5072539;23;20005;-77
2022/10/08 06:07:30;;;;;;;4.18;1.40;;;12.30;99.90;;;11.51;100.00;101996.19;5073926;23;20009;-77
2022/10/08 06:09:31;;;;;;;5.43;1.42;;;12.30;99.90;;;11.50;100.00;101991.88;5073935;23;20005;-77
2022/10/08 06:11:35;;;;;;;4.07;1.70;;;12.30;99.90;;;11.51;100.00;101994.41;5074187;23;20016;-77
2022/10/08 06:13:37;;;;;;;2.50;1.15;;;12.30;99.90;;;11.50;100.00;101990.06;5071994;23;20451;-77
2022/10/08 06:15:37;;;;;;;7.38;1.65;;;12.30;99.90;;;11.49;100.00;101987.56;5072851;23;20074;-77
2022/10/08 06:17:38;;;;;;;6.57;1.50;;;12.30;99.90;;;11.52;100.00;101992.59;5072444;23;20030;-77
2022/10/08 06:19:39;;;;;;;6.65;1.73;;;12.30;99.90;;;11.54;100.00;101990.66;5072609;23;20061;-77
2022/10/08 06:21:40;;;;;;;12.45;1.80;;;12.40;99.90;;;11.56;100.00;101991.34;5096984;23;20009;-77
2022/10/08 06:23:51;;;;;;;6.90;1.50;;;12.40;99.90;;;11.58;100.00;101998.19;5072474;23;20009;-77
2022/10/08 06:25:52;;;;;;;4.13;1.70;;;12.40;99.90;;;11.61;100.00;102002.38;5072442;23;20002;-77
2022/10/08 06:27:52;;;;;;;7.18;1.65;;;12.40;99.90;;;11.65;100.00;101998.47;5072179;23;20002;-78
2022/10/08 06:29:53;;;;;;;5.07;1.98;;;12.40;99.90;;;11.66;100.00;102003.66;5073908;23;20006;-78
2022/10/08 06:31:54;;;;;;;10.15;2.80;;;12.40;99.90;;;11.70;100.00;102003.41;5073827;23;20439;-77
2022/10/08 06:33:57;;;;;;;4.20;1.67;;;12.40;99.90;;;11.71;100.00;102005.09;5074038;23;20010;-77
2022/10/08 06:36:22;;;;;;;5.28;1.75;;;12.50;99.90;;;11.70;100.00;102014.84;5073865;23;20018;-77
2022/10/08 06:38:23;;;;;;;4.68;1.67;;;12.50;99.90;;;11.66;100.00;102002.81;5072442;23;20065;-77
2022/10/08 06:40:24;;;;;;;5.07;1.50;;;12.50;99.90;;;11.69;100.00;102021.06;5072287;23;20457;-77
2022/10/08 06:42:25;;;;;;;4.82;1.63;;;12.50;99.90;;;11.62;100.00;101996.94;5073565;23;20006;-77
2022/10/08 06:44:26;;;;;;;4.57;1.55;;;12.50;99.90;;;11.72;100.00;102022.63;5072431;23;20009;-77
2022/10/08 06:46:29;;;;;;;3.10;1.10;;;12.50;99.90;;;11.68;100.00;102016.72;5073804;23;19998;-77
2022/10/08 06:48:31;;;;;;;3.47;1.50;;;12.50;99.90;;;11.78;100.00;102024.72;5072372;23;20018;-77
2022/10/08 06:50:32;;;;;;;6.43;1.77;;;12.50;99.90;;;11.79;100.00;102021.97;5072948;23;20014;-78
2022/10/08 06:52:33;;;;;;;5.22;1.85;;;12.60;99.90;;;11.82;100.00;102024.34;5074009;23;20049;-78
2022/10/08 06:54:34;;;;;;;4.13;1.60;;;12.60;99.90;;;11.88;100.00;102036.19;5049865;23;20007;-78
2022/10/08 06:56:37;;;;;;;8.40;2.28;;;12.60;99.90;;;11.87;100.00;102030.06;5075396;23;20005;-78
2022/10/08 06:58:38;;;;;;;4.82;2.08;;;12.70;99.90;;;11.90;100.00;102031.59;5073255;23;20368;-78
2022/10/08 07:00:39;;;;;;;7.85;2.15;;;12.70;99.90;;;11.93;100.00;102039.28;5073803;23;20010;-77
2022/10/08 07:02:39;;;;;;;6.15;2.15;;;12.80;99.90;;;12.02;100.00;102046.41;5075315;23;20005;-77
2022/10/08 07:04:40;;;;;;;10.25;2.67;;;12.80;99.90;;;12.04;100.00;102044.47;5049476;23;20510;-77
2022/10/08 07:06:41;;;;;;;11.75;3.00;;;12.90;99.90;;;12.13;100.00;102041.84;5075500;23;20041;-77
2022/10/08 07:08:42;;;;;;;5.65;2.03;;;12.90;99.90;;;12.10;100.00;102028.91;5074007;23;20359;-77
2022/10/08 07:10:43;;;;;;;6.95;2.22;;;13.00;99.90;;;12.25;100.00;102042.59;5073615;23;20005;-76
2022/10/08 07:12:44;;;;;;;4.47;1.70;;;13.10;99.90;;;12.35;100.00;102061.97;5073393;23;20021;-76
2022/10/08 07:14:45;;;;;;;8.32;2.25;;;13.10;99.90;;;12.41;100.00;102052.66;5049503;23;20046;-77
2022/10/08 07:16:46;;;;;;;3.88;1.92;;;13.20;99.90;;;12.53;100.00;102051.56;5073869;23;20012;-77
2022/10/08 07:18:49;;;;;;;4.75;1.77;;;13.30;99.90;;;12.59;100.00;102051.03;5073715;23;20057;-77
2022/10/08 07:20:55;;;;;;;4.10;2.00;;;13.40;99.90;;;12.73;100.00;102062.03;5073622;23;20010;-77
2022/10/08 07:22:56;;;;;;;5.15;1.92;;;13.60;99.90;;;12.82;100.00;102070.13;5075225;23;20077;-77
2022/10/08 07:24:57;;;;;;;5.53;1.67;;;13.60;99.90;;;12.88;100.00;102065.13;5073529;23;20030;-77
2022/10/08 07:26:58;;;;;;;6.47;1.63;;;13.70;99.90;;;12.90;100.00;102071.13;5098067;23;20401;-76
2022/10/08 07:29:11;;;;;;;11.35;2.45;;;13.70;99.90;;;12.98;100.00;102073.91;5073439;23;20033;-77
2022/10/08 07:31:18;;;;;;;5.57;1.58;;;13.70;99.90;;;13.04;100.00;102065.41;5049917;23;20069;-77
2022/10/08 07:33:19;;;;;;;6.43;2.00;;;13.80;99.90;;;13.14;100.00;102076.03;5073734;23;20316;-77
2022/10/08 07:35:20;;;;;;;8.13;2.65;;;13.90;99.90;;;13.20;100.00;102072.84;5075078;23;20053;-77
2022/10/08 07:37:21;;;;;;;6.45;1.77;;;13.90;99.90;;;13.21;100.00;102064.72;5090437;23;20009;-77
2022/10/08 07:39:22;;;;;;;5.72;1.90;;;14.00;99.90;;;13.27;100.00;102077.41;5073500;23;20424;-77
2022/10/08 07:41:24;;;;;;;6.85;2.20;;;14.00;99.90;;;13.30;100.00;102073.66;5049220;23;20376;-77
2022/10/08 07:43:25;;;;;;;5.07;2.10;;;14.10;99.90;;;13.34;100.00;102077.69;5097266;23;20010;-77
2022/10/08 07:45:25;;;;;;;5.50;1.90;;;14.10;99.90;;;13.38;100.00;102075.59;5073433;23;20112;-77
2022/10/08 07:47:26;;;;;;;10.05;3.00;;;14.20;99.90;;;13.45;100.00;102082.84;5073560;23;20340;-77
2022/10/08 07:49:27;;;;;;;5.22;2.70;;;14.20;99.90;;;13.51;100.00;102089.38;5099377;23;20017;-77
2022/10/08 07:51:30;;;;;;;7.60;2.85;;;14.30;99.90;;;13.56;100.00;102087.16;5099356;23;20005;-77
2022/10/08 07:53:31;;;;;;;8.23;2.78;;;14.40;99.90;;;13.59;100.00;102084.22;5098903;23;20397;-77
2022/10/08 07:55:32;;;;;;;5.43;2.42;;;14.40;99.90;;;13.66;100.00;102082.66;5048959;23;20007;-77
2022/10/08 07:57:33;;;;;;;5.43;2.45;;;14.50;99.90;;;13.75;100.00;102087.09;5048754;23;20384;-77
2022/10/08 07:59:34;;;;;;;5.30;2.38;;;14.50;99.90;;;13.79;100.00;102085.84;5073234;23;20049;-77
2022/10/08 08:01:35;;;;;;;8.60;3.38;;;14.60;99.90;;;13.83;100.00;102092.50;5073404;23;20010;-77
2022/10/08 08:03:36;;;;;;;5.22;1.83;;;14.60;99.90;;;13.89;100.00;102083.16;5073301;23;20002;-77
2022/10/08 08:05:37;;;;;;;7.28;2.60;;;14.70;99.90;;;14.01;100.00;102084.66;5073517;23;20439;-77
2022/10/08 08:07:38;;;;;;;8.45;2.22;;;14.80;99.90;;;14.07;100.00;102090.19;5099101;23;20002;-77
2022/10/08 08:09:39;;;;;;;8.93;2.30;;;14.80;99.90;;;14.08;100.00;102089.22;5099055;23;20060;-78
2022/10/08 08:11:40;;;;;;;8.00;2.45;;;14.80;99.90;;;14.08;100.00;102085.72;5073435;23;20064;-78
2022/10/08 08:13:42;;;;;;;5.65;2.33;;;14.90;99.90;;;14.09;100.00;102093.56;5048656;23;20010;-78
2022/10/08 08:15:43;;;;;;;8.02;3.03;;;14.90;99.90;;;14.05;100.00;102092.16;5048139;23;20058;-78
2022/10/08 08:17:44;;;;;;;3.88;2.35;;;14.90;99.90;;;14.10;100.00;102097.03;5099074;23;20013;-77
2022/10/08 08:19:44;;;;;;;5.60;2.90;;;14.90;99.90;;;14.14;100.00;102107.22;5072884;23;20059;-80
2022/10/08 08:21:45;;;;;;;7.85;3.00;;;14.90;99.90;;;14.02;100.00;102103.06;5097497;23;20316;-80
2022/10/08 08:23:49;;;;;;;6.38;2.40;;;14.90;99.90;;;13.95;100.00;102104.63;5072681;23;20002;-79
2022/10/08 08:25:50;;;;;;;7.43;2.17;;;14.80;99.90;;;13.88;100.00;102108.84;5073374;23;20002;-80
2022/10/08 08:27:51;;;;;;;5.32;2.78;;;14.80;99.90;;;13.76;100.00;102108.19;5072812;23;20037;-79
2022/10/08 08:29:52;;;;;;;7.68;2.05;;;14.70;99.90;;;13.72;100.00;102116.56;5073164;23;20435;-79
2022/10/08 08:31:53;;;;;;;8.50;2.45;;;14.60;99.90;;;13.59;100.00;102106.25;5099196;23;20010;-79
2022/10/08 08:33:58;;;;;;;10.02;2.83;;;14.50;99.90;;;13.42;100.00;102098.19;5073217;23;20006;-80
2022/10/08 08:35:59;;;;;;;7.50;2.55;;;14.30;99.90;;;13.41;100.00;102112.44;5048768;23;20106;-79